sensor_id;sensor_type;location;lat;lon;timestamp;P1;durP1;ratioP1;P2;durP2;ratioP2
32236;SDS011;18726;44.732;10.550;2023-08-20T00:01:45;33.33;;;30.13;;
32236;SDS011;18726;44.732;10.550;2023-08-20T00:04:49;31.30;;;28.25;;
32236;SDS011;18726;44.732;10.550;2023-08-20T00:07:54;34.08;;;28.42;;
32236;SDS011;18726;44.732;10.550;2023-08-20T00:10:57;36.72;;;30.10;;
32236;SDS011;18726;44.732;10.550;2023-08-20T00:14:01;32.22;;;28.75;;
32236;SDS011;18726;44.732;10.550;2023-08-20T00:17:04;35.78;;;29.58;;
32236;SDS011;18726;44.732;10.550;2023-08-20T00:20:08;28.83;;;26.25;;
32236;SDS011;18726;44.732;10.550;2023-08-20T00:23:16;29.15;;;26.08;;
32236;SDS011;18726;44.732;10.550;2023-08-20T00:26:20;20.65;;;18.75;;
32236;SDS011;18726;44.732;10.550;2023-08-20T00:29:23;19.65;;;17.88;;
32236;SDS011;18726;44.732;10.550;2023-08-20T00:32:27;18.83;;;16.85;;
32236;SDS011;18726;44.732;10.550;2023-08-20T00:35:31;19.02;;;17.13;;
32236;SDS011;18726;44.732;10.550;2023-08-20T00:38:36;20.25;;;18.35;;
32236;SDS011;18726;44.732;10.550;2023-08-20T00:41:40;24.60;;;22.30;;
32236;SDS011;18726;44.732;10.550;2023-08-20T00:44:44;27.90;;;25.15;;
32236;SDS011;18726;44.732;10.550;2023-08-20T00:47:48;27.17;;;24.35;;
32236;SDS011;18726;44.732;10.550;2023-08-20T00:50:53;29.10;;;26.13;;
32236;SDS011;18726;44.732;10.550;2023-08-20T00:53:56;30.65;;;26.83;;
32236;SDS011;18726;44.732;10.550;2023-08-20T00:57:01;27.30;;;24.45;;
32236;SDS011;18726;44.732;10.550;2023-08-20T01:00:06;29.95;;;27.17;;
32236;SDS011;18726;44.732;10.550;2023-08-20T01:03:14;32.40;;;29.00;;
32236;SDS011;18726;44.732;10.550;2023-08-20T01:13:16;35.92;;;31.80;;
32236;SDS011;18726;44.732;10.550;2023-08-20T01:16:20;32.47;;;29.25;;
32236;SDS011;18726;44.732;10.550;2023-08-20T01:19:24;36.20;;;32.65;;
32236;SDS011;18726;44.732;10.550;2023-08-20T01:29:22;22.85;;;20.80;;
32236;SDS011;18726;44.732;10.550;2023-08-20T01:32:26;22.27;;;20.27;;
32236;SDS011;18726;44.732;10.550;2023-08-20T01:35:30;22.80;;;20.67;;
32236;SDS011;18726;44.732;10.550;2023-08-20T01:38:51;20.73;;;18.65;;
32236;SDS011;18726;44.732;10.550;2023-08-20T01:41:55;17.45;;;15.85;;
32236;SDS011;18726;44.732;10.550;2023-08-20T01:44:59;18.25;;;16.40;;
32236;SDS011;18726;44.732;10.550;2023-08-20T01:48:03;22.00;;;19.50;;
32236;SDS011;18726;44.732;10.550;2023-08-20T01:51:09;21.40;;;19.25;;
32236;SDS011;18726;44.732;10.550;2023-08-20T01:54:13;23.60;;;21.30;;
32236;SDS011;18726;44.732;10.550;2023-08-20T01:57:17;20.83;;;18.90;;
32236;SDS011;18726;44.732;10.550;2023-08-20T02:00:21;23.27;;;21.17;;
32236;SDS011;18726;44.732;10.550;2023-08-20T02:03:24;21.80;;;19.75;;
32236;SDS011;18726;44.732;10.550;2023-08-20T02:06:28;28.58;;;25.45;;
32236;SDS011;18726;44.732;10.550;2023-08-20T02:09:32;29.75;;;27.02;;
32236;SDS011;18726;44.732;10.550;2023-08-20T02:12:36;29.98;;;27.08;;
32236;SDS011;18726;44.732;10.550;2023-08-20T02:15:41;30.13;;;24.85;;
32236;SDS011;18726;44.732;10.550;2023-08-20T02:18:44;23.88;;;21.50;;
32236;SDS011;18726;44.732;10.550;2023-08-20T02:21:48;24.70;;;22.50;;
32236;SDS011;18726;44.732;10.550;2023-08-20T02:24:52;19.27;;;17.48;;
32236;SDS011;18726;44.732;10.550;2023-08-20T02:27:55;19.67;;;17.05;;
32236;SDS011;18726;44.732;10.550;2023-08-20T02:31:03;19.17;;;17.27;;
32236;SDS011;18726;44.732;10.550;2023-08-20T02:34:07;19.55;;;17.55;;
32236;SDS011;18726;44.732;10.550;2023-08-20T02:37:11;18.90;;;17.10;;
32236;SDS011;18726;44.732;10.550;2023-08-20T02:40:15;19.30;;;17.42;;
32236;SDS011;18726;44.732;10.550;2023-08-20T02:43:19;19.55;;;17.75;;
32236;SDS011;18726;44.732;10.550;2023-08-20T02:46:23;17.45;;;15.85;;
32236;SDS011;18726;44.732;10.550;2023-08-20T02:49:26;18.90;;;17.02;;
32236;SDS011;18726;44.732;10.550;2023-08-20T02:52:29;18.40;;;16.77;;
32236;SDS011;18726;44.732;10.550;2023-08-20T02:55:33;31.52;;;28.23;;
32236;SDS011;18726;44.732;10.550;2023-08-20T02:58:38;31.30;;;28.15;;
32236;SDS011;18726;44.732;10.550;2023-08-20T03:01:42;32.63;;;29.33;;
32236;SDS011;18726;44.732;10.550;2023-08-20T03:04:46;34.33;;;29.60;;
32236;SDS011;18726;44.732;10.550;2023-08-20T03:07:50;37.67;;;33.75;;
32236;SDS011;18726;44.732;10.550;2023-08-20T03:10:53;44.67;;;39.90;;
32236;SDS011;18726;44.732;10.550;2023-08-20T03:13:57;41.92;;;37.38;;
32236;SDS011;18726;44.732;10.550;2023-08-20T03:17:00;40.92;;;36.85;;
32236;SDS011;18726;44.732;10.550;2023-08-20T03:20:04;42.95;;;38.78;;
32236;SDS011;18726;44.732;10.550;2023-08-20T03:23:09;42.72;;;38.55;;
32236;SDS011;18726;44.732;10.550;2023-08-20T03:26:13;39.85;;;35.97;;
32236;SDS011;18726;44.732;10.550;2023-08-20T03:29:17;33.85;;;30.63;;
32236;SDS011;18726;44.732;10.550;2023-08-20T03:32:21;25.98;;;23.55;;
32236;SDS011;18726;44.732;10.550;2023-08-20T03:35:25;34.30;;;30.73;;
32236;SDS011;18726;44.732;10.550;2023-08-20T03:38:30;25.27;;;23.00;;
32236;SDS011;18726;44.732;10.550;2023-08-20T03:41:34;34.20;;;30.88;;
32236;SDS011;18726;44.732;10.550;2023-08-20T03:44:37;27.63;;;24.92;;
32236;SDS011;18726;44.732;10.550;2023-08-20T03:47:41;22.30;;;20.25;;
32236;SDS011;18726;44.732;10.550;2023-08-20T03:50:47;23.02;;;21.02;;
32236;SDS011;18726;44.732;10.550;2023-08-20T03:53:53;21.38;;;19.38;;
32236;SDS011;18726;44.732;10.550;2023-08-20T03:56:56;24.05;;;21.75;;
32236;SDS011;18726;44.732;10.550;2023-08-20T04:00:00;33.58;;;25.77;;
32236;SDS011;18726;44.732;10.550;2023-08-20T04:03:04;24.55;;;22.17;;
32236;SDS011;18726;44.732;10.550;2023-08-20T04:06:08;34.72;;;31.25;;
32236;SDS011;18726;44.732;10.550;2023-08-20T04:09:11;37.53;;;33.95;;
32236;SDS011;18726;44.732;10.550;2023-08-20T04:12:16;37.45;;;33.78;;
32236;SDS011;18726;44.732;10.550;2023-08-20T04:15:20;36.53;;;32.80;;
32236;SDS011;18726;44.732;10.550;2023-08-20T04:18:24;28.33;;;25.38;;
32236;SDS011;18726;44.732;10.550;2023-08-20T04:21:28;24.00;;;21.60;;
32236;SDS011;18726;44.732;10.550;2023-08-20T04:24:32;25.23;;;22.52;;
32236;SDS011;18726;44.732;10.550;2023-08-20T04:27:36;22.58;;;20.40;;
32236;SDS011;18726;44.732;10.550;2023-08-20T04:30:40;31.23;;;28.15;;
32236;SDS011;18726;44.732;10.550;2023-08-20T04:33:45;23.92;;;21.83;;
32236;SDS011;18726;44.732;10.550;2023-08-20T04:36:50;21.02;;;19.10;;
32236;SDS011;18726;44.732;10.550;2023-08-20T04:39:55;20.55;;;18.35;;
32236;SDS011;18726;44.732;10.550;2023-08-20T04:43:00;31.17;;;27.75;;
32236;SDS011;18726;44.732;10.550;2023-08-20T04:46:04;34.25;;;30.67;;
32236;SDS011;18726;44.732;10.550;2023-08-20T04:49:08;31.15;;;28.30;;
32236;SDS011;18726;44.732;10.550;2023-08-20T04:52:12;30.90;;;27.80;;
32236;SDS011;18726;44.732;10.550;2023-08-20T04:55:15;26.92;;;24.35;;
32236;SDS011;18726;44.732;10.550;2023-08-20T04:58:20;25.73;;;23.25;;
32236;SDS011;18726;44.732;10.550;2023-08-20T05:01:24;26.60;;;21.50;;
32236;SDS011;18726;44.732;10.550;2023-08-20T05:04:28;21.02;;;19.00;;
32236;SDS011;18726;44.732;10.550;2023-08-20T05:07:32;21.42;;;19.42;;
32236;SDS011;18726;44.732;10.550;2023-08-20T05:10:36;18.77;;;17.08;;
32236;SDS011;18726;44.732;10.550;2023-08-20T05:13:40;25.20;;;20.52;;
32236;SDS011;18726;44.732;10.550;2023-08-20T05:16:44;18.73;;;16.98;;
32236;SDS011;18726;44.732;10.550;2023-08-20T05:19:47;19.13;;;16.95;;
32236;SDS011;18726;44.732;10.550;2023-08-20T05:22:52;20.85;;;18.88;;
32236;SDS011;18726;44.732;10.550;2023-08-20T05:25:55;19.02;;;17.23;;
32236;SDS011;18726;44.732;10.550;2023-08-20T05:29:00;21.38;;;18.17;;
32236;SDS011;18726;44.732;10.550;2023-08-20T05:32:04;20.17;;;18.20;;
32236;SDS011;18726;44.732;10.550;2023-08-20T05:35:08;18.70;;;16.92;;
32236;SDS011;18726;44.732;10.550;2023-08-20T05:38:13;19.65;;;15.95;;
32236;SDS011;18726;44.732;10.550;2023-08-20T05:41:17;15.93;;;14.38;;
32236;SDS011;18726;44.732;10.550;2023-08-20T05:44:20;17.90;;;16.15;;
32236;SDS011;18726;44.732;10.550;2023-08-20T05:47:24;14.75;;;13.48;;
32236;SDS011;18726;44.732;10.550;2023-08-20T05:50:28;15.55;;;14.15;;
32236;SDS011;18726;44.732;10.550;2023-08-20T05:53:31;14.05;;;12.60;;
32236;SDS011;18726;44.732;10.550;2023-08-20T05:56:35;14.57;;;11.02;;
32236;SDS011;18726;44.732;10.550;2023-08-20T05:59:39;17.38;;;14.68;;
32236;SDS011;18726;44.732;10.550;2023-08-20T06:02:43;14.13;;;12.93;;
32236;SDS011;18726;44.732;10.550;2023-08-20T06:05:47;15.45;;;13.75;;
32236;SDS011;18726;44.732;10.550;2023-08-20T06:08:51;17.65;;;15.00;;
32236;SDS011;18726;44.732;10.550;2023-08-20T06:11:55;16.90;;;15.20;;
32236;SDS011;18726;44.732;10.550;2023-08-20T06:14:59;19.30;;;15.48;;
32236;SDS011;18726;44.732;10.550;2023-08-20T06:18:03;18.42;;;15.35;;
32236;SDS011;18726;44.732;10.550;2023-08-20T06:21:06;18.92;;;14.25;;
32236;SDS011;18726;44.732;10.550;2023-08-20T06:24:10;20.25;;;14.18;;
32236;SDS011;18726;44.732;10.550;2023-08-20T06:27:14;14.93;;;13.50;;
32236;SDS011;18726;44.732;10.550;2023-08-20T06:30:18;15.48;;;12.82;;
32236;SDS011;18726;44.732;10.550;2023-08-20T06:33:22;14.48;;;13.02;;
32236;SDS011;18726;44.732;10.550;2023-08-20T06:36:26;16.75;;;13.63;;
32236;SDS011;18726;44.732;10.550;2023-08-20T06:39:30;16.20;;;13.40;;
32236;SDS011;18726;44.732;10.550;2023-08-20T06:42:33;15.95;;;11.60;;
32236;SDS011;18726;44.732;10.550;2023-08-20T06:45:37;17.98;;;10.88;;
32236;SDS011;18726;44.732;10.550;2023-08-20T06:48:40;11.90;;;10.70;;
32236;SDS011;18726;44.732;10.550;2023-08-20T06:51:44;17.23;;;8.63;;
32236;SDS011;18726;44.732;10.550;2023-08-20T06:54:47;9.20;;;8.32;;
32236;SDS011;18726;44.732;10.550;2023-08-20T06:57:51;11.85;;;9.52;;
32236;SDS011;18726;44.732;10.550;2023-08-20T07:00:55;8.98;;;8.07;;
32236;SDS011;18726;44.732;10.550;2023-08-20T07:03:59;12.73;;;10.23;;
32236;SDS011;18726;44.732;10.550;2023-08-20T07:07:02;11.38;;;9.40;;
32236;SDS011;18726;44.732;10.550;2023-08-20T07:10:08;14.68;;;10.15;;
32236;SDS011;18726;44.732;10.550;2023-08-20T07:13:12;7.93;;;7.25;;
32236;SDS011;18726;44.732;10.550;2023-08-20T07:16:16;9.98;;;8.65;;
32236;SDS011;18726;44.732;10.550;2023-08-20T07:19:19;8.50;;;7.70;;
32236;SDS011;18726;44.732;10.550;2023-08-20T07:22:23;11.68;;;9.65;;
32236;SDS011;18726;44.732;10.550;2023-08-20T07:25:27;10.95;;;9.68;;
32236;SDS011;18726;44.732;10.550;2023-08-20T07:28:30;10.13;;;9.05;;
32236;SDS011;18726;44.732;10.550;2023-08-20T07:31:53;11.98;;;10.93;;
32236;SDS011;18726;44.732;10.550;2023-08-20T07:34:56;19.40;;;12.02;;
32236;SDS011;18726;44.732;10.550;2023-08-20T07:37:59;14.27;;;11.75;;
32236;SDS011;18726;44.732;10.550;2023-08-20T07:41:03;13.50;;;11.80;;
32236;SDS011;18726;44.732;10.550;2023-08-20T07:44:07;25.90;;;14.60;;
32236;SDS011;18726;44.732;10.550;2023-08-20T07:47:10;14.10;;;12.60;;
32236;SDS011;18726;44.732;10.550;2023-08-20T07:50:14;12.25;;;10.82;;
32236;SDS011;18726;44.732;10.550;2023-08-20T07:53:18;15.82;;;12.35;;
32236;SDS011;18726;44.732;10.550;2023-08-20T07:56:21;14.55;;;13.07;;
32236;SDS011;18726;44.732;10.550;2023-08-20T07:59:25;12.07;;;10.88;;
32236;SDS011;18726;44.732;10.550;2023-08-20T08:02:30;14.55;;;12.75;;
32236;SDS011;18726;44.732;10.550;2023-08-20T08:05:33;13.50;;;12.23;;
32236;SDS011;18726;44.732;10.550;2023-08-20T08:08:41;17.50;;;12.00;;
32236;SDS011;18726;44.732;10.550;2023-08-20T08:11:47;16.23;;;11.95;;
32236;SDS011;18726;44.732;10.550;2023-08-20T08:14:51;14.63;;;13.23;;
32236;SDS011;18726;44.732;10.550;2023-08-20T08:17:55;13.43;;;12.20;;
32236;SDS011;18726;44.732;10.550;2023-08-20T08:20:59;14.27;;;12.88;;
32236;SDS011;18726;44.732;10.550;2023-08-20T08:24:03;11.65;;;10.25;;
32236;SDS011;18726;44.732;10.550;2023-08-20T08:27:08;11.50;;;10.40;;
32236;SDS011;18726;44.732;10.550;2023-08-20T08:30:12;16.48;;;10.98;;
32236;SDS011;18726;44.732;10.550;2023-08-20T08:33:16;13.85;;;12.50;;
32236;SDS011;18726;44.732;10.550;2023-08-20T08:36:19;14.20;;;12.98;;
32236;SDS011;18726;44.732;10.550;2023-08-20T08:39:23;13.07;;;11.90;;
32236;SDS011;18726;44.732;10.550;2023-08-20T08:42:27;13.90;;;12.52;;
32236;SDS011;18726;44.732;10.550;2023-08-20T08:45:31;17.10;;;15.60;;
32236;SDS011;18726;44.732;10.550;2023-08-20T08:48:36;15.75;;;14.43;;
32236;SDS011;18726;44.732;10.550;2023-08-20T08:51:40;14.20;;;12.90;;
32236;SDS011;18726;44.732;10.550;2023-08-20T08:54:46;19.75;;;17.85;;
32236;SDS011;18726;44.732;10.550;2023-08-20T08:57:51;13.88;;;12.32;;
32236;SDS011;18726;44.732;10.550;2023-08-20T09:00:55;17.90;;;16.00;;
32236;SDS011;18726;44.732;10.550;2023-08-20T09:03:58;15.63;;;14.23;;
32236;SDS011;18726;44.732;10.550;2023-08-20T09:07:02;18.38;;;16.73;;
32236;SDS011;18726;44.732;10.550;2023-08-20T09:10:06;15.90;;;12.90;;
32236;SDS011;18726;44.732;10.550;2023-08-20T09:13:10;17.58;;;13.25;;
32236;SDS011;18726;44.732;10.550;2023-08-20T09:16:14;13.15;;;11.95;;
32236;SDS011;18726;44.732;10.550;2023-08-20T09:19:18;14.88;;;13.48;;
32236;SDS011;18726;44.732;10.550;2023-08-20T09:22:21;14.60;;;13.23;;
32236;SDS011;18726;44.732;10.550;2023-08-20T09:25:25;12.98;;;11.02;;
32236;SDS011;18726;44.732;10.550;2023-08-20T09:28:40;18.63;;;10.70;;
32236;SDS011;18726;44.732;10.550;2023-08-20T09:31:45;12.05;;;10.85;;
32236;SDS011;18726;44.732;10.550;2023-08-20T09:34:51;12.32;;;11.02;;
32236;SDS011;18726;44.732;10.550;2023-08-20T09:38:00;14.90;;;13.50;;
32236;SDS011;18726;44.732;10.550;2023-08-20T09:41:04;12.50;;;11.02;;
32236;SDS011;18726;44.732;10.550;2023-08-20T09:44:08;15.90;;;11.00;;
32236;SDS011;18726;44.732;10.550;2023-08-20T09:47:13;12.63;;;11.52;;
32236;SDS011;18726;44.732;10.550;2023-08-20T09:50:17;11.85;;;10.65;;
32236;SDS011;18726;44.732;10.550;2023-08-20T09:53:32;13.48;;;11.90;;
32236;SDS011;18726;44.732;10.550;2023-08-20T09:56:39;11.68;;;10.57;;
32236;SDS011;18726;44.732;10.550;2023-08-20T09:59:43;12.60;;;11.48;;
32236;SDS011;18726;44.732;10.550;2023-08-20T10:02:49;13.48;;;12.27;;
32236;SDS011;18726;44.732;10.550;2023-08-20T10:05:54;12.13;;;11.00;;
32236;SDS011;18726;44.732;10.550;2023-08-20T10:08:59;12.07;;;10.98;;
32236;SDS011;18726;44.732;10.550;2023-08-20T10:12:04;13.30;;;12.23;;
32236;SDS011;18726;44.732;10.550;2023-08-20T10:15:08;13.23;;;12.00;;
32236;SDS011;18726;44.732;10.550;2023-08-20T10:18:13;13.80;;;12.63;;
32236;SDS011;18726;44.732;10.550;2023-08-20T10:21:17;13.30;;;11.25;;
32236;SDS011;18726;44.732;10.550;2023-08-20T10:24:23;14.02;;;12.63;;
32236;SDS011;18726;44.732;10.550;2023-08-20T10:27:27;13.63;;;12.52;;
32236;SDS011;18726;44.732;10.550;2023-08-20T10:30:34;13.38;;;12.18;;
32236;SDS011;18726;44.732;10.550;2023-08-20T10:36:48;12.77;;;11.48;;
32236;SDS011;18726;44.732;10.550;2023-08-20T10:39:55;14.13;;;12.82;;
32236;SDS011;18726;44.732;10.550;2023-08-20T10:43:02;14.63;;;13.15;;
32236;SDS011;18726;44.732;10.550;2023-08-20T10:46:13;15.95;;;14.38;;
32236;SDS011;18726;44.732;10.550;2023-08-20T10:49:21;15.65;;;13.95;;
32236;SDS011;18726;44.732;10.550;2023-08-20T10:52:25;15.93;;;14.52;;
32236;SDS011;18726;44.732;10.550;2023-08-20T10:55:32;14.73;;;13.32;;
32236;SDS011;18726;44.732;10.550;2023-08-20T10:58:44;13.75;;;12.48;;
32236;SDS011;18726;44.732;10.550;2023-08-20T11:01:50;12.63;;;11.35;;
32236;SDS011;18726;44.732;10.550;2023-08-20T11:04:55;14.70;;;13.40;;
32236;SDS011;18726;44.732;10.550;2023-08-20T11:08:00;12.45;;;11.35;;
32236;SDS011;18726;44.732;10.550;2023-08-20T11:11:11;13.75;;;12.45;;
32236;SDS011;18726;44.732;10.550;2023-08-20T11:14:17;14.73;;;13.32;;
32236;SDS011;18726;44.732;10.550;2023-08-20T11:17:22;14.52;;;13.18;;
32236;SDS011;18726;44.732;10.550;2023-08-20T11:20:26;16.98;;;12.65;;
32236;SDS011;18726;44.732;10.550;2023-08-20T11:23:30;13.63;;;12.38;;
32236;SDS011;18726;44.732;10.550;2023-08-20T11:26:34;14.15;;;11.90;;
32236;SDS011;18726;44.732;10.550;2023-08-20T11:29:42;14.93;;;13.40;;
32236;SDS011;18726;44.732;10.550;2023-08-20T11:32:49;14.85;;;13.52;;
32236;SDS011;18726;44.732;10.550;2023-08-20T11:35:56;15.38;;;13.95;;
32236;SDS011;18726;44.732;10.550;2023-08-20T11:39:00;12.57;;;11.48;;
32236;SDS011;18726;44.732;10.550;2023-08-20T11:42:04;13.15;;;11.90;;
32236;SDS011;18726;44.732;10.550;2023-08-20T11:45:10;15.63;;;12.60;;
32236;SDS011;18726;44.732;10.550;2023-08-20T11:48:14;14.38;;;12.95;;
32236;SDS011;18726;44.732;10.550;2023-08-20T11:51:18;14.40;;;13.07;;
32236;SDS011;18726;44.732;10.550;2023-08-20T11:54:22;13.63;;;12.30;;
32236;SDS011;18726;44.732;10.550;2023-08-20T11:57:29;11.95;;;10.95;;
32236;SDS011;18726;44.732;10.550;2023-08-20T12:00:33;10.82;;;9.95;;
32236;SDS011;18726;44.732;10.550;2023-08-20T12:03:39;13.85;;;12.23;;
32236;SDS011;18726;44.732;10.550;2023-08-20T12:06:43;12.95;;;11.85;;
32236;SDS011;18726;44.732;10.550;2023-08-20T12:09:47;11.23;;;10.23;;
32236;SDS011;18726;44.732;10.550;2023-08-20T12:12:51;12.40;;;11.30;;
32236;SDS011;18726;44.732;10.550;2023-08-20T12:15:56;12.52;;;11.35;;
32236;SDS011;18726;44.732;10.550;2023-08-20T12:19:00;12.50;;;11.30;;
32236;SDS011;18726;44.732;10.550;2023-08-20T12:22:03;11.00;;;9.98;;
32236;SDS011;18726;44.732;10.550;2023-08-20T12:25:07;10.90;;;9.95;;
32236;SDS011;18726;44.732;10.550;2023-08-20T12:28:11;11.05;;;9.90;;
32236;SDS011;18726;44.732;10.550;2023-08-20T12:31:15;11.52;;;10.38;;
32236;SDS011;18726;44.732;10.550;2023-08-20T12:34:19;12.00;;;10.90;;
32236;SDS011;18726;44.732;10.550;2023-08-20T12:37:24;12.40;;;11.23;;
32236;SDS011;18726;44.732;10.550;2023-08-20T12:40:28;12.38;;;10.93;;
32236;SDS011;18726;44.732;10.550;2023-08-20T12:43:33;14.32;;;12.55;;
32236;SDS011;18726;44.732;10.550;2023-08-20T12:46:37;12.70;;;11.55;;
32236;SDS011;18726;44.732;10.550;2023-08-20T12:49:41;12.23;;;10.88;;
32236;SDS011;18726;44.732;10.550;2023-08-20T12:52:44;11.73;;;10.52;;
32236;SDS011;18726;44.732;10.550;2023-08-20T12:55:50;11.23;;;10.13;;
32236;SDS011;18726;44.732;10.550;2023-08-20T12:58:54;12.13;;;11.10;;
32236;SDS011;18726;44.732;10.550;2023-08-20T13:01:58;11.75;;;10.65;;
32236;SDS011;18726;44.732;10.550;2023-08-20T13:05:02;12.18;;;10.98;;
32236;SDS011;18726;44.732;10.550;2023-08-20T13:08:06;11.98;;;10.95;;
32236;SDS011;18726;44.732;10.550;2023-08-20T13:11:12;12.95;;;11.75;;
32236;SDS011;18726;44.732;10.550;2023-08-20T13:14:20;16.73;;;11.77;;
32236;SDS011;18726;44.732;10.550;2023-08-20T13:17:24;12.55;;;11.55;;
32236;SDS011;18726;44.732;10.550;2023-08-20T13:20:29;12.52;;;11.27;;
32236;SDS011;18726;44.732;10.550;2023-08-20T13:23:33;12.15;;;10.82;;
32236;SDS011;18726;44.732;10.550;2023-08-20T13:26:37;13.10;;;11.90;;
32236;SDS011;18726;44.732;10.550;2023-08-20T13:29:40;12.80;;;10.60;;
32236;SDS011;18726;44.732;10.550;2023-08-20T13:32:44;12.38;;;10.40;;
32236;SDS011;18726;44.732;10.550;2023-08-20T13:35:48;13.18;;;11.82;;
32236;SDS011;18726;44.732;10.550;2023-08-20T13:38:52;12.77;;;11.57;;
32236;SDS011;18726;44.732;10.550;2023-08-20T13:41:56;11.57;;;10.50;;
32236;SDS011;18726;44.732;10.550;2023-08-20T13:44:59;11.07;;;10.00;;
32236;SDS011;18726;44.732;10.550;2023-08-20T13:48:03;11.88;;;10.57;;
32236;SDS011;18726;44.732;10.550;2023-08-20T13:51:07;12.52;;;10.35;;
32236;SDS011;18726;44.732;10.550;2023-08-20T13:54:11;12.75;;;11.52;;
32236;SDS011;18726;44.732;10.550;2023-08-20T13:57:15;12.68;;;11.30;;
32236;SDS011;18726;44.732;10.550;2023-08-20T14:00:18;11.18;;;10.15;;
32236;SDS011;18726;44.732;10.550;2023-08-20T14:03:22;12.10;;;11.07;;
32236;SDS011;18726;44.732;10.550;2023-08-20T14:06:27;11.23;;;9.90;;
32236;SDS011;18726;44.732;10.550;2023-08-20T14:09:32;12.50;;;11.40;;
32236;SDS011;18726;44.732;10.550;2023-08-20T14:12:38;14.13;;;10.52;;
32236;SDS011;18726;44.732;10.550;2023-08-20T14:15:41;12.32;;;11.20;;
32236;SDS011;18726;44.732;10.550;2023-08-20T14:18:45;12.30;;;11.18;;
32236;SDS011;18726;44.732;10.550;2023-08-20T14:21:49;13.00;;;11.27;;
32236;SDS011;18726;44.732;10.550;2023-08-20T14:24:53;12.55;;;11.25;;
32236;SDS011;18726;44.732;10.550;2023-08-20T14:27:57;11.75;;;10.65;;
32236;SDS011;18726;44.732;10.550;2023-08-20T14:31:04;11.60;;;10.60;;
32236;SDS011;18726;44.732;10.550;2023-08-20T14:34:09;12.43;;;11.32;;
32236;SDS011;18726;44.732;10.550;2023-08-20T14:37:13;11.90;;;10.90;;
32236;SDS011;18726;44.732;10.550;2023-08-20T14:40:17;12.77;;;11.57;;
32236;SDS011;18726;44.732;10.550;2023-08-20T14:43:21;13.60;;;12.40;;
32236;SDS011;18726;44.732;10.550;2023-08-20T14:46:26;12.68;;;10.32;;
32236;SDS011;18726;44.732;10.550;2023-08-20T14:49:30;12.45;;;11.25;;
32236;SDS011;18726;44.732;10.550;2023-08-20T14:52:34;11.60;;;10.38;;
32236;SDS011;18726;44.732;10.550;2023-08-20T14:55:38;12.75;;;11.30;;
32236;SDS011;18726;44.732;10.550;2023-08-20T14:58:42;12.15;;;10.57;;
32236;SDS011;18726;44.732;10.550;2023-08-20T15:01:46;12.23;;;11.20;;
32236;SDS011;18726;44.732;10.550;2023-08-20T15:04:49;11.20;;;10.20;;
32236;SDS011;18726;44.732;10.550;2023-08-20T15:07:53;12.65;;;11.32;;
32236;SDS011;18726;44.732;10.550;2023-08-20T15:11:00;12.05;;;10.98;;
32236;SDS011;18726;44.732;10.550;2023-08-20T15:14:07;11.43;;;10.20;;
32236;SDS011;18726;44.732;10.550;2023-08-20T15:17:11;11.40;;;10.43;;
32236;SDS011;18726;44.732;10.550;2023-08-20T15:20:15;16.08;;;10.60;;
32236;SDS011;18726;44.732;10.550;2023-08-20T15:23:19;12.50;;;10.65;;
32236;SDS011;18726;44.732;10.550;2023-08-20T15:26:22;11.68;;;10.27;;
32236;SDS011;18726;44.732;10.550;2023-08-20T15:29:27;12.10;;;11.00;;
32236;SDS011;18726;44.732;10.550;2023-08-20T15:32:30;11.43;;;10.23;;
32236;SDS011;18726;44.732;10.550;2023-08-20T15:35:34;14.77;;;10.40;;
32236;SDS011;18726;44.732;10.550;2023-08-20T15:41:58;12.73;;;10.90;;
32236;SDS011;18726;44.732;10.550;2023-08-20T15:45:15;11.32;;;10.32;;
32236;SDS011;18726;44.732;10.550;2023-08-20T15:48:29;11.98;;;10.77;;
32236;SDS011;18726;44.732;10.550;2023-08-20T15:51:33;11.55;;;10.35;;
32236;SDS011;18726;44.732;10.550;2023-08-20T15:54:41;12.48;;;11.13;;
32236;SDS011;18726;44.732;10.550;2023-08-20T15:57:45;15.55;;;10.30;;
32236;SDS011;18726;44.732;10.550;2023-08-20T16:00:48;11.90;;;10.70;;
32236;SDS011;18726;44.732;10.550;2023-08-20T16:03:53;14.45;;;10.27;;
32236;SDS011;18726;44.732;10.550;2023-08-20T16:06:57;12.32;;;11.05;;
32236;SDS011;18726;44.732;10.550;2023-08-20T16:10:01;12.10;;;10.98;;
32236;SDS011;18726;44.732;10.550;2023-08-20T16:13:07;12.38;;;10.63;;
32236;SDS011;18726;44.732;10.550;2023-08-20T16:16:10;13.60;;;10.85;;
32236;SDS011;18726;44.732;10.550;2023-08-20T16:19:15;14.32;;;11.18;;
32236;SDS011;18726;44.732;10.550;2023-08-20T16:22:19;11.85;;;10.65;;
32236;SDS011;18726;44.732;10.550;2023-08-20T16:25:23;11.88;;;10.65;;
32236;SDS011;18726;44.732;10.550;2023-08-20T16:28:27;11.52;;;10.38;;
32236;SDS011;18726;44.732;10.550;2023-08-20T16:31:30;11.43;;;10.32;;
32236;SDS011;18726;44.732;10.550;2023-08-20T16:34:34;11.90;;;10.63;;
32236;SDS011;18726;44.732;10.550;2023-08-20T16:37:38;13.35;;;10.23;;
32236;SDS011;18726;44.732;10.550;2023-08-20T16:40:42;13.40;;;11.40;;
32236;SDS011;18726;44.732;10.550;2023-08-20T16:43:45;11.80;;;10.68;;
32236;SDS011;18726;44.732;10.550;2023-08-20T16:46:49;11.63;;;10.55;;
32236;SDS011;18726;44.732;10.550;2023-08-20T16:49:53;14.23;;;10.82;;
32236;SDS011;18726;44.732;10.550;2023-08-20T16:52:56;11.82;;;10.43;;
32236;SDS011;18726;44.732;10.550;2023-08-20T16:56:00;11.27;;;10.38;;
32236;SDS011;18726;44.732;10.550;2023-08-20T16:59:04;11.20;;;10.10;;
32236;SDS011;18726;44.732;10.550;2023-08-20T17:02:08;11.50;;;10.30;;
32236;SDS011;18726;44.732;10.550;2023-08-20T17:05:12;12.57;;;10.07;;
32236;SDS011;18726;44.732;10.550;2023-08-20T17:08:15;14.82;;;9.75;;
32236;SDS011;18726;44.732;10.550;2023-08-20T17:11:18;11.48;;;10.48;;
32236;SDS011;18726;44.732;10.550;2023-08-20T17:14:23;12.35;;;9.90;;
32236;SDS011;18726;44.732;10.550;2023-08-20T17:17:29;10.20;;;9.18;;
32236;SDS011;18726;44.732;10.550;2023-08-20T17:20:33;11.32;;;9.30;;
32236;SDS011;18726;44.732;10.550;2023-08-20T17:23:39;12.48;;;10.38;;
32236;SDS011;18726;44.732;10.550;2023-08-20T17:26:43;12.02;;;10.70;;
32236;SDS011;18726;44.732;10.550;2023-08-20T17:29:47;19.42;;;11.43;;
32236;SDS011;18726;44.732;10.550;2023-08-20T17:32:51;12.82;;;11.40;;
32236;SDS011;18726;44.732;10.550;2023-08-20T17:35:55;14.07;;;10.57;;
32236;SDS011;18726;44.732;10.550;2023-08-20T17:38:59;13.20;;;11.25;;
32236;SDS011;18726;44.732;10.550;2023-08-20T17:42:03;14.48;;;11.55;;
32236;SDS011;18726;44.732;10.550;2023-08-20T17:45:07;11.23;;;10.23;;
32236;SDS011;18726;44.732;10.550;2023-08-20T17:48:12;11.88;;;10.57;;
32236;SDS011;18726;44.732;10.550;2023-08-20T17:51:16;12.48;;;11.23;;
32236;SDS011;18726;44.732;10.550;2023-08-20T17:54:20;11.85;;;10.75;;
32236;SDS011;18726;44.732;10.550;2023-08-20T17:57:23;12.02;;;9.98;;
32236;SDS011;18726;44.732;10.550;2023-08-20T18:00:27;14.40;;;10.73;;
32236;SDS011;18726;44.732;10.550;2023-08-20T18:03:30;12.60;;;10.27;;
32236;SDS011;18726;44.732;10.550;2023-08-20T18:06:34;14.23;;;10.48;;